MSC Vienna — A8CI9 — position and weather

sailwx.info

Track history (hours):
 
Tides and Currents Weather Stations Pressure Air Temp Water Temp Dewpoint Dewpoint Depression Visibility Wind Speed Wind Dir Waves Ship Positions

MSC Vienna

Last reported at 2014-Jul-23 23:21 UTC. Time now 2014-Jul-24 15:27 UTC.
Position S 30°24' E 030°49'.

Length 260.1 m; beam 32.2 m; draft 12 m.

Type: Ship. MMSI: 636090654.

Date/timePositionNaut miles runAvg speedWind from/ knotsBaromVisibWave heightAir tempDewpointWater temp
2014-Jul-23 23:21S 30°24' E 030°49'1518.2
2014-Jul-23 22:33S 30°11' E 030°56'1919.3
2014-Jul-23 21:33S 29°54' E 031°06'4 4.4
2014-Jul-23 20:33S 29°53' E 031°01'0 0.1
2014-Jul-23 17:13S 29°53' E 031°01'0 0.0
2014-Jul-23 16:25S 29°53' E 031°01'0 0.0
2014-Jul-23 14:06S 29°53' E 031°01'0 0.0
2014-Jul-23 11:23S 29°53' E 031°01'0 0.0
2014-Jul-23 10:04S 29°53' E 031°01'0 0.0
2014-Jul-23 09:22S 29°53' E 031°01'0 0.0
2014-Jul-23 07:09S 29°53' E 031°01'0 0.0
2014-Jul-23 06:33S 29°53' E 031°01'0 0.0
2014-Jul-23 04:26S 29°53' E 031°01'0 0.0
2014-Jul-23 03:25S 29°53' E 031°01'0 0.0
2014-Jul-23 00:30S 29°53' E 031°01'0 0.0
2014-Jul-22 23:23S 29°53' E 031°01'0 0.0
2014-Jul-22 22:29S 29°53' E 031°01'0 0.0
2014-Jul-22 21:10S 29°53' E 031°01'0 0.0
2014-Jul-22 20:04S 29°53' E 031°01'0 0.0
2014-Jul-22 19:28S 29°53' E 031°01'0 0.0
2014-Jul-22 14:32S 29°53' E 031°01'0 0.0
2014-Jul-22 13:19S 29°53' E 031°01'1 1.2
2014-Jul-22 12:31S 29°52' E 031°02'0 0.3
2014-Jul-22 11:17S 29°52' E 031°02'0 0.0
2014-Jul-22 10:22S 29°52' E 031°02'1 0.5
2014-Jul-22 09:15S 29°53' E 031°02'0 0.0
2014-Jul-22 08:27S 29°53' E 031°02'0 0.0
2014-Jul-22 07:21S 29°53' E 031°02'0 0.0
2014-Jul-22 06:32S 29°53' E 031°02'0 0.0
2014-Jul-22 04:19S 29°53' E 031°02'0 0.0
2014-Jul-22 03:31S 29°53' E 031°02'0 0.0
2014-Jul-22 02:24S 29°53' E 031°02'0 0.0
2014-Jul-22 01:30S 29°53' E 031°02'0 0.0
2014-Jul-22 00:30S 29°53' E 031°02'0 0.0
2014-Jul-21 23:05S 29°53' E 031°02'0 0.0
2014-Jul-21 22:23S 29°53' E 031°02'0 0.0
2014-Jul-21 20:28S 29°53' E 031°02'0 0.0
2014-Jul-21 20:16S 29°53' E 031°02'0 0.0
2014-Jul-21 19:33S 29°53' E 031°02'0 0.0
2014-Jul-21 17:33S 29°53' E 031°02'0 0.0
2014-Jul-21 11:30S 29°53' E 031°02'0 0.0
2014-Jul-21 10:24S 29°53' E 031°02'0 0.0
2014-Jul-21 09:29S 29°53' E 031°02'0 0.0
2014-Jul-21 08:11S 29°53' E 031°02'0 0.0
2014-Jul-21 07:16S 29°53' E 031°02'0 0.0
2014-Jul-21 04:21S 29°53' E 031°02'0 0.0
2014-Jul-21 00:25S 29°53' E 031°02'0 0.0
2014-Jul-20 23:31S 29°53' E 031°02'0 0.0
2014-Jul-20 22:18S 29°53' E 031°02'0 0.0
2014-Jul-20 21:24S 29°53' E 031°02'0 0.0
2014-Jul-20 20:30S 29°53' E 031°02'0 0.0
2014-Jul-20 19:29S 29°53' E 031°02'0 0.0
2014-Jul-20 16:22S 29°53' E 031°02'0 0.0
2014-Jul-20 15:33S 29°53' E 031°02'0 0.0
2014-Jul-20 14:33S 29°53' E 031°02'0 0.1
2014-Jul-20 09:29S 29°53' E 031°01'0 0.0
2014-Jul-20 08:22S 29°53' E 031°01'0 0.0
2014-Jul-20 06:33S 29°53' E 031°01'0 0.0
2014-Jul-20 05:27S 29°53' E 031°01'0 0.0
2014-Jul-20 04:20S 29°53' E 031°01'0 0.0
2014-Jul-20 03:32S 29°53' E 031°01'0 0.0
2014-Jul-20 02:32S 29°53' E 031°01'0 0.0
2014-Jul-20 01:25S 29°53' E 031°01'0 0.0
2014-Jul-20 00:19S 29°53' E 031°01'0 0.0
2014-Jul-19 23:30S 29°53' E 031°01'0 0.0
2014-Jul-19 22:30S 29°53' E 031°01'0 0.0
2014-Jul-19 21:23S 29°53' E 031°01'0 0.0
2014-Jul-19 20:16S 29°53' E 031°01'3 3.7
2014-Jul-19 19:33S 29°51' E 031°04'5 5.0
2014-Jul-19 18:33S 29°47' E 031°08'4 3.9
2014-Jul-19 17:24S 29°43' E 031°09'0 0.0
2014-Jul-19 15:29S 29°43' E 031°09'0 0.0
2014-Jul-19 14:29S 29°43' E 031°09'0 0.0
2014-Jul-19 13:28S 29°43' E 031°09'0 0.0
2014-Jul-19 12:28S 29°43' E 031°09'0 0.1
2014-Jul-19 11:33S 29°43' E 031°09'0 0.0
2014-Jul-19 10:27S 29°43' E 031°09'0 0.0
2014-Jul-19 08:26S 29°43' E 031°09'0 0.0
2014-Jul-19 07:32S 29°43' E 031°09'0 0.0
2014-Jul-19 06:31S 29°43' E 031°09'0 0.0
2014-Jul-19 05:31S 29°43' E 031°09'0 0.0
2014-Jul-19 04:24S 29°43' E 031°09'0 0.0
2014-Jul-19 03:18S 29°43' E 031°09'0 0.0
2014-Jul-19 02:30S 29°43' E 031°09'0 0.0
2014-Jul-19 01:29S 29°43' E 031°09'0 0.0
2014-Jul-19 00:05S 29°43' E 031°09'0 0.0
2014-Jul-18 23:28S 29°43' E 031°09'0 0.0
2014-Jul-18 22:28S 29°43' E 031°09'0 0.0
2014-Jul-18 21:21S 29°43' E 031°09'0 0.0
2014-Jul-18 20:15S 29°43' E 031°09'0 0.0
2014-Jul-18 17:32S 29°43' E 031°09'0 0.0
2014-Jul-18 16:13S 29°43' E 031°09'0 0.0
2014-Jul-18 15:31S 29°43' E 031°09'0 0.0
2014-Jul-18 14:12S 29°43' E 031°09'0 0.0
2014-Jul-18 13:06S 29°43' E 031°09'0 0.0
2014-Jul-18 12:30S 29°43' E 031°09'0 0.0
2014-Jul-18 11:22S 29°43' E 031°09'0 0.0
2014-Jul-18 10:29S 29°43' E 031°09'0 0.0
2014-Jul-18 09:22S 29°43' E 031°09'0 0.0
2014-Jul-18 07:33S 29°43' E 031°09'0 0.0
2014-Jul-18 05:32S 29°43' E 031°09'0 0.0
2014-Jul-18 04:26S 29°43' E 031°09'0 0.1
2014-Jul-18 03:32S 29°43' E 031°09'0 0.0
2014-Jul-18 02:31S 29°43' E 031°09'0 0.1
2014-Jul-18 01:31S 29°43' E 031°09'0 0.1
2014-Jul-18 00:30S 29°43' E 031°09'0 0.0
2014-Jul-17 23:30S 29°43' E 031°09'0 0.0
2014-Jul-17 22:17S 29°43' E 031°09'0 0.0
2014-Jul-17 21:29S 29°43' E 031°09'0 0.0
2014-Jul-17 20:23S 29°43' E 031°09'0 0.0
2014-Jul-17 19:28S 29°43' E 031°09'0 0.0
2014-Jul-17 18:16S 29°43' E 031°09'0 0.0
2014-Jul-17 17:27S 29°43' E 031°09'0 0.0
2014-Jul-17 15:20S 29°43' E 031°09'0 0.0
2014-Jul-17 14:26S 29°43' E 031°09'0 0.0
2014-Jul-17 13:32S 29°43' E 031°09'0 0.0
2014-Jul-17 12:19S 29°43' E 031°09'0 0.0
2014-Jul-17 11:31S 29°43' E 031°09'0 0.0
2014-Jul-17 10:30S 29°43' E 031°09'0 0.0
2014-Jul-17 09:30S 29°43' E 031°09'0 0.0
2014-Jul-17 08:29S 29°43' E 031°09'0 0.0
2014-Jul-17 07:17S 29°43' E 031°09'0 0.0
2014-Jul-17 04:22S 29°43' E 031°09'0 0.0
2014-Jul-17 03:27S 29°43' E 031°09'0 0.0
2014-Jul-17 02:33S 29°43' E 031°09'0 0.0
2014-Jul-17 01:26S 29°43' E 031°09'0 0.0
2014-Jul-17 00:32S 29°43' E 031°09'0 0.0
2014-Jul-16 23:25S 29°43' E 031°09'0 0.0
2014-Jul-16 22:31S 29°43' E 031°09'0 0.0
2014-Jul-16 21:31S 29°43' E 031°09'0 0.0
2014-Jul-16 20:30S 29°43' E 031°09'0 0.0
2014-Jul-16 19:24S 29°43' E 031°09'0 0.0
2014-Jul-16 17:22S 29°43' E 031°09'7 8.2
2014-Jul-16 16:33S 29°50' E 031°07'1413.3
2014-Jul-16 15:32S 30°02' E 031°00'1313.4
2014-Jul-16 14:32S 30°14' E 030°55'1413.4
2014-Jul-16 13:32S 30°26' E 030°48'1313.0
2014-Jul-16 12:29S 30°38' E 030°40'1212.7
2014-Jul-16 11:34S 30°49' E 030°34'30611.6
2014-Jul-15 09:16S 33°55' E 025°46'  
Track history (hours):
 
Tides and Currents Weather Stations Pressure Air Temp Water Temp Dewpoint Dewpoint Depression Visibility Wind Speed Wind Dir Waves Ship Positions

MSC Vienna

Last reported at 2014-Jul-23 23:21 UTC. Time now 2014-Jul-24 15:27 UTC.
Position S 30°24' E 030°49'.

Length 260.1 m; beam 32.2 m; draft 12 m.

Type: Ship. MMSI: 636090654.

Date/timePositionNaut miles runAvg speedWind from/ knotsBaromVisibWave heightAir tempDewpointWater temp
2014-Jul-23 23:21S 30°24' E 030°49'1518.2
2014-Jul-23 22:33S 30°11' E 030°56'1919.3
2014-Jul-23 21:33S 29°54' E 031°06'4 4.4
2014-Jul-23 20:33S 29°53' E 031°01'0 0.1
2014-Jul-23 17:13S 29°53' E 031°01'0 0.0
2014-Jul-23 16:25S 29°53' E 031°01'0 0.0
2014-Jul-23 14:06S 29°53' E 031°01'0 0.0
2014-Jul-23 11:23S 29°53' E 031°01'0 0.0
2014-Jul-23 10:04S 29°53' E 031°01'0 0.0
2014-Jul-23 09:22S 29°53' E 031°01'0 0.0
2014-Jul-23 07:09S 29°53' E 031°01'0 0.0
2014-Jul-23 06:33S 29°53' E 031°01'0 0.0
2014-Jul-23 04:26S 29°53' E 031°01'0 0.0
2014-Jul-23 03:25S 29°53' E 031°01'0 0.0
2014-Jul-23 00:30S 29°53' E 031°01'0 0.0
2014-Jul-22 23:23S 29°53' E 031°01'0 0.0
2014-Jul-22 22:29S 29°53' E 031°01'0 0.0
2014-Jul-22 21:10S 29°53' E 031°01'0 0.0
2014-Jul-22 20:04S 29°53' E 031°01'0 0.0
2014-Jul-22 19:28S 29°53' E 031°01'0 0.0
2014-Jul-22 14:32S 29°53' E 031°01'0 0.0
2014-Jul-22 13:19S 29°53' E 031°01'1 1.2
2014-Jul-22 12:31S 29°52' E 031°02'0 0.3
2014-Jul-22 11:17S 29°52' E 031°02'0 0.0
2014-Jul-22 10:22S 29°52' E 031°02'1 0.5
2014-Jul-22 09:15S 29°53' E 031°02'0 0.0
2014-Jul-22 08:27S 29°53' E 031°02'0 0.0
2014-Jul-22 07:21S 29°53' E 031°02'0 0.0
2014-Jul-22 06:32S 29°53' E 031°02'0 0.0
2014-Jul-22 04:19S 29°53' E 031°02'0 0.0
2014-Jul-22 03:31S 29°53' E 031°02'0 0.0
2014-Jul-22 02:24S 29°53' E 031°02'0 0.0
2014-Jul-22 01:30S 29°53' E 031°02'0 0.0
2014-Jul-22 00:30S 29°53' E 031°02'0 0.0
2014-Jul-21 23:05S 29°53' E 031°02'0 0.0
2014-Jul-21 22:23S 29°53' E 031°02'0 0.0
2014-Jul-21 20:28S 29°53' E 031°02'0 0.0
2014-Jul-21 20:16S 29°53' E 031°02'0 0.0
2014-Jul-21 19:33S 29°53' E 031°02'0 0.0
2014-Jul-21 17:33S 29°53' E 031°02'0 0.0
2014-Jul-21 11:30S 29°53' E 031°02'0 0.0
2014-Jul-21 10:24S 29°53' E 031°02'0 0.0
2014-Jul-21 09:29S 29°53' E 031°02'0 0.0
2014-Jul-21 08:11S 29°53' E 031°02'0 0.0
2014-Jul-21 07:16S 29°53' E 031°02'0 0.0
2014-Jul-21 04:21S 29°53' E 031°02'0 0.0
2014-Jul-21 00:25S 29°53' E 031°02'0 0.0
2014-Jul-20 23:31S 29°53' E 031°02'0 0.0
2014-Jul-20 22:18S 29°53' E 031°02'0 0.0
2014-Jul-20 21:24S 29°53' E 031°02'0 0.0
2014-Jul-20 20:30S 29°53' E 031°02'0 0.0
2014-Jul-20 19:29S 29°53' E 031°02'0 0.0
2014-Jul-20 16:22S 29°53' E 031°02'0 0.0
2014-Jul-20 15:33S 29°53' E 031°02'0 0.0
2014-Jul-20 14:33S 29°53' E 031°02'0 0.1
2014-Jul-20 09:29S 29°53' E 031°01'0 0.0
2014-Jul-20 08:22S 29°53' E 031°01'0 0.0
2014-Jul-20 06:33S 29°53' E 031°01'0 0.0
2014-Jul-20 05:27S 29°53' E 031°01'0 0.0
2014-Jul-20 04:20S 29°53' E 031°01'0 0.0
2014-Jul-20 03:32S 29°53' E 031°01'0 0.0
2014-Jul-20 02:32S 29°53' E 031°01'0 0.0
2014-Jul-20 01:25S 29°53' E 031°01'0 0.0
2014-Jul-20 00:19S 29°53' E 031°01'0 0.0
2014-Jul-19 23:30S 29°53' E 031°01'0 0.0
2014-Jul-19 22:30S 29°53' E 031°01'0 0.0
2014-Jul-19 21:23S 29°53' E 031°01'0 0.0
2014-Jul-19 20:16S 29°53' E 031°01'3 3.7
2014-Jul-19 19:33S 29°51' E 031°04'5 5.0
2014-Jul-19 18:33S 29°47' E 031°08'4 3.9
2014-Jul-19 17:24S 29°43' E 031°09'0 0.0
2014-Jul-19 15:29S 29°43' E 031°09'0 0.0
2014-Jul-19 14:29S 29°43' E 031°09'0 0.0
2014-Jul-19 13:28S 29°43' E 031°09'0 0.0
2014-Jul-19 12:28S 29°43' E 031°09'0 0.1
2014-Jul-19 11:33S 29°43' E 031°09'0 0.0
2014-Jul-19 10:27S 29°43' E 031°09'0 0.0
2014-Jul-19 08:26S 29°43' E 031°09'0 0.0
2014-Jul-19 07:32S 29°43' E 031°09'0 0.0
2014-Jul-19 06:31S 29°43' E 031°09'0 0.0
2014-Jul-19 05:31S 29°43' E 031°09'0 0.0
2014-Jul-19 04:24S 29°43' E 031°09'0 0.0
2014-Jul-19 03:18S 29°43' E 031°09'0 0.0
2014-Jul-19 02:30S 29°43' E 031°09'0 0.0
2014-Jul-19 01:29S 29°43' E 031°09'0 0.0
2014-Jul-19 00:05S 29°43' E 031°09'0 0.0
2014-Jul-18 23:28S 29°43' E 031°09'0 0.0
2014-Jul-18 22:28S 29°43' E 031°09'0 0.0
2014-Jul-18 21:21S 29°43' E 031°09'0 0.0
2014-Jul-18 20:15S 29°43' E 031°09'0 0.0
2014-Jul-18 17:32S 29°43' E 031°09'0 0.0
2014-Jul-18 16:13S 29°43' E 031°09'0 0.0
2014-Jul-18 15:31S 29°43' E 031°09'0 0.0
2014-Jul-18 14:12S 29°43' E 031°09'0 0.0
2014-Jul-18 13:06S 29°43' E 031°09'0 0.0
2014-Jul-18 12:30S 29°43' E 031°09'0 0.0
2014-Jul-18 11:22S 29°43' E 031°09'0 0.0
2014-Jul-18 10:29S 29°43' E 031°09'0 0.0
2014-Jul-18 09:22S 29°43' E 031°09'0 0.0
2014-Jul-18 07:33S 29°43' E 031°09'0 0.0
2014-Jul-18 05:32S 29°43' E 031°09'0 0.0
2014-Jul-18 04:26S 29°43' E 031°09'0 0.1
2014-Jul-18 03:32S 29°43' E 031°09'0 0.0
2014-Jul-18 02:31S 29°43' E 031°09'0 0.1
2014-Jul-18 01:31S 29°43' E 031°09'0 0.1
2014-Jul-18 00:30S 29°43' E 031°09'0 0.0
2014-Jul-17 23:30S 29°43' E 031°09'0 0.0
2014-Jul-17 22:17S 29°43' E 031°09'0 0.0
2014-Jul-17 21:29S 29°43' E 031°09'0 0.0
2014-Jul-17 20:23S 29°43' E 031°09'0 0.0
2014-Jul-17 19:28S 29°43' E 031°09'0 0.0
2014-Jul-17 18:16S 29°43' E 031°09'0 0.0
2014-Jul-17 17:27S 29°43' E 031°09'0 0.0
2014-Jul-17 15:20S 29°43' E 031°09'0 0.0
2014-Jul-17 14:26S 29°43' E 031°09'0 0.0
2014-Jul-17 13:32S 29°43' E 031°09'0 0.0
2014-Jul-17 12:19S 29°43' E 031°09'0 0.0
2014-Jul-17 11:31S 29°43' E 031°09'0 0.0
2014-Jul-17 10:30S 29°43' E 031°09'0 0.0
2014-Jul-17 09:30S 29°43' E 031°09'0 0.0
2014-Jul-17 08:29S 29°43' E 031°09'0 0.0
2014-Jul-17 07:17S 29°43' E 031°09'0 0.0
2014-Jul-17 04:22S 29°43' E 031°09'0 0.0
2014-Jul-17 03:27S 29°43' E 031°09'0 0.0
2014-Jul-17 02:33S 29°43' E 031°09'0 0.0
2014-Jul-17 01:26S 29°43' E 031°09'0 0.0
2014-Jul-17 00:32S 29°43' E 031°09'0 0.0
2014-Jul-16 23:25S 29°43' E 031°09'0 0.0
2014-Jul-16 22:31S 29°43' E 031°09'0 0.0
2014-Jul-16 21:31S 29°43' E 031°09'0 0.0
2014-Jul-16 20:30S 29°43' E 031°09'0 0.0
2014-Jul-16 19:24S 29°43' E 031°09'0 0.0
2014-Jul-16 17:22S 29°43' E 031°09'7 8.2
2014-Jul-16 16:33S 29°50' E 031°07'1413.3
2014-Jul-16 15:32S 30°02' E 031°00'1313.4
2014-Jul-16 14:32S 30°14' E 030°55'1413.4
2014-Jul-16 13:32S 30°26' E 030°48'1313.0
2014-Jul-16 12:29S 30°38' E 030°40'1212.7
2014-Jul-16 11:34S 30°49' E 030°34'30611.6
2014-Jul-15 09:16S 33°55' E 025°46'  

Dump ship's entire track history